ADDS METAR Data INFO
IDs: Format: Raw Decoded Include TAF

Data at: 0935 UTC 11 Dec 2017

KMLS 110853Z AUTO 30017G27KT 10SM CLR 06/M06 A3025 RMK AO2 PK WND 30027/0850 SLP249 T00561061 51008 TSNO
KMLS 110753Z AUTO 30014G25KT 10SM CLR 07/M06 A3024 RMK AO2 PK WND 31027/0741 SLP246 T00671061 TSNO
KMLS 110653Z AUTO 32018G27KT 10SM CLR 08/M06 A3024 RMK AO2 PK WND 32030/0633 SLP243 T00781061 401441017 TSNO
KMLS 110553Z AUTO 32015KT 10SM CLR 07/M07 A3022 RMK AO2 SLP242 T00721072 10106 20039 53024 TSNO
KMLS 110453Z AUTO 31012KT 10SM CLR 07/M08 A3018 RMK AO2 SLP234 T00671078 TSNO
KMLS 110353Z AUTO 29006KT 10SM CLR 05/M09 A3017 RMK AO2 SLP233 T00501089 TSNO
KMLS 110253Z AUTO 24010KT 10SM CLR 05/M09 A3015 RMK AO2 SLP230 T00501094 50011 TSNO
KMLS 110153Z AUTO 27012KT 10SM CLR 08/M10 A3016 RMK AO2 SLP232 T00831100 TSNO
KMLS 110053Z AUTO 28015KT 10SM CLR 08/M11 A3014 RMK AO2 SLP222 T00831111 TSNO
KMLS 102353Z AUTO 28015KT 10SM CLR 11/M11 A3011 RMK AO2 SLP209 T01061111 10144 20100 58007 TSNO
KMLS 102253Z AUTO 27012KT 10SM CLR 12/M09 A3014 RMK AO2 SLP219 T01221089 TSNO
KMLS 102153Z AUTO 28009G22KT 10SM CLR 13/M09 A3014 RMK AO2 SLP218 T01281089 TSNO
KMLS 102053Z AUTO 28018G28KT 10SM CLR 14/M10 A3014 RMK AO2 PK WND 28028/2047 SLP214 T01391100 56023 TSNO
KMLS 101953Z AUTO 29015G25KT 10SM CLR 14/M11 A3015 RMK AO2 PK WND 28028/1937 SLP221 T01391106 TSNO
KMLS 101853Z AUTO 27013KT 10SM CLR 13/M09 A3017 RMK AO2 SLP226 T01331094 TSNO
KMLS 101753Z AUTO 27012G18KT 10SM CLR 10/M08 A3021 RMK AO2 SLP242 T01001083 10100 21017 56005 TSNO
KMLS 101653Z AUTO 23007KT 10SM CLR 05/M08 A3022 RMK AO2 SLP249 T00501083 TSNO
KMLS 101553Z AUTO 20003KT 10SM CLR 01/M08 A3022 RMK AO2 SLP253 T00111083 TSNO
KMLS 101453Z AUTO 27006KT 10SM CLR M01/M10 A3023 RMK AO2 SLP259 T10061100 58001 TSNO
KMLS 101353Z AUTO 28006KT 10SM CLR M02/M10 A3023 RMK AO2 SLP260 T10171100 TSNO
KMLS 101253Z AUTO 22005KT 10SM CLR 00/M10 A3023 RMK AO2 SLP257 T00001100 TSNO
KMLS 101153Z AUTO 25013KT 10SM CLR 02/M10 A3023 RMK AO2 SLP253 T00221100 10028 21006 58006 TSNO
KMLS 101053Z AUTO 28008KT 10SM CLR 00/M10 A3024 RMK AO2 SLP254 T00001100 TSNO
KMLS 100953Z AUTO 26007KT 10SM CLR 01/M10 A3024 RMK AO2 SLP250 T00111100 TSNO
KMLS 100853Z AUTO 25004KT 10SM CLR 02/M11 A3025 RMK AO2 SLP251 T00171106 53003 TSNO
KMLS 100753Z AUTO 26008KT 10SM CLR 01/M11 A3024 RMK AO2 SLP250 T00061106 TSNO
KMLS 100653Z AUTO 26009KT 10SM CLR 02/M11 A3024 RMK AO2 SLP250 T00221106 401441033 TSNO
KMLS 100553Z AUTO 26010KT 10SM CLR 03/M11 A3024 RMK AO2 SLP252 T00281106 10067 20011 53002 TSNO
KMLS 100453Z AUTO 26011KT 10SM CLR 03/M11 A3023 RMK AO2 SLP252 T00331106 TSNO
KMLS 100353Z AUTO 26012KT 10SM CLR 04/M11 A3024 RMK AO2 SLP258 T00391106 TSNO
KMLS 100253Z AUTO 31010KT 10SM CLR 03/M11 A3023 RMK AO2 SLP262 T00281106 53013 TSNO
KMLS 100153Z AUTO 31006KT 10SM CLR 05/M10 A3021 RMK AO2 SLP254 T00501100 TSNO
KMLS 100053Z AUTO 30008KT 10SM CLR 06/M10 A3020 RMK AO2 SLP248 T00561100 TSNO
KMLS 092353Z AUTO 28008KT 10SM CLR 07/M11 A3019 RMK AO2 SLP245 T00671106 10144 20067 53013 TSNO
KMLS 092253Z AUTO 29012KT 10SM CLR 12/M11 A3017 RMK AO2 SLP232 T01171106 TSNO
KMLS 092153Z AUTO 28017KT 10SM CLR 14/M11 A3016 RMK AO2 PK WND 27027/2056 SLP226 T01391111 TSNO